Latest Coastal Weather Observations for Flinders Island Airport

IDT60701

Issued at 12:02 am EST Wednesday 27 May 2015 (issued every 10 minutes, with the page automatically refreshed every 10 minutes)

About coastal observations | Map of coastal stations | Coastal observations for TAS | Marine services | Other Formats
Station Details ID: 099005 Name: FLINDERS ISLAND AIRPORT Lat: -40.09 Lon: 148.00 Height: 9.0 m
Data from the previous 72 hours. | See also: Recent months at Flinders Island Airport
Date/Time
EST
Temp

°C
Wind Pressure Rain
since 9am
mm
Weather Cloud Vis
km
Sea
Height
m
Swell
Dir
 
Speed
knots
Gust
knots
hPa Trend Height
m
Period
s
Dir
27/12:00am 6.6 NE 8 10 1024.1 - 0.0 - Mostly clear - - - - -
 
Date/Time
EST
Temp

°C
Wind Pressure Rain
since 9am
mm
Weather Cloud Vis
km
Sea
Height
m
Swell
Dir
 
Speed
knots
Gust
knots
hPa Trend Height
m
Period
s
Dir
26/11:30pm 4.9 ENE 8 9 1024.3 - 0.0 - - 10 - - - -
26/11:00pm 5.0 ENE 7 8 1024.6 - 0.0 - - 10 - - - -
26/10:30pm 5.0 ENE 8 8 1024.7 - 0.0 - - 10 - - - -
26/10:00pm 5.9 NE 7 7 1024.8 - 0.0 - - 10 - - - -
26/09:30pm 7.5 NE 7 8 1025.1 - 0.0 - - - - - - -
26/09:00pm 6.2 ENE 7 8 1025.3 - 0.0 - Partly cloudy 10 - - - -
26/08:30pm 6.7 NE 7 9 1025.7 - 0.0 - - 10 - - - -
26/08:00pm 7.3 NE 5 6 1025.7 - 0.0 - Partly cloudy 10 - - - -
26/07:30pm 8.0 NNE 5 6 1025.6 - 0.0 - - 10 - - - -
26/07:00pm 8.4 NE 6 7 1025.6 - 0.0 - - 10 - - - -
26/06:30pm 8.7 NE 4 5 1025.6 - 0.0 - - 10 - - - -
26/06:00pm 9.3 ENE 5 7 1025.5 - 0.0 - - 10 - - - -
26/05:30pm 11.9 WNW 6 6 1025.5 - 0.0 - Partly cloudy 10 - - - -
26/05:24pm 12.0 WNW 5 6 1025.5 - 0.0 - Partly cloudy 10 - - - -
26/05:00pm 12.9 WNW 4 6 1025.5 - 0.0 - Partly cloudy 10 - - - -
26/04:37pm 13.3 WNW 5 6 1025.6 - 0.0 - Partly cloudy 10 - - - -
26/04:30pm 13.6 WNW 5 7 1025.7 - 0.0 - Partly cloudy 10 - - - -
26/04:00pm 14.5 W 8 10 1025.7 - 0.0 - - 10 - - - -
26/03:30pm 14.9 W 9 12 1025.7 - 0.0 - Partly cloudy 10 - - - -
26/03:00pm 14.9 W 10 13 1025.6 - 0.0 - Mostly clear 10 - - - -
26/02:44pm 15.4 W 11 14 1025.7 - 0.0 - Partly cloudy 10 - - - -
26/02:30pm 15.5 W 11 14 1025.8 - 0.0 - Partly cloudy 10 - - - -
26/02:28pm 15.3 W 11 14 1025.8 - 0.0 - Partly cloudy 10 - - - -
26/02:00pm 15.3 W 11 13 1026.0 - 0.0 - Partly cloudy 10 - - - -
26/01:39pm 14.4 WSW 11 14 1026.1 - 0.0 - Partly cloudy 10 - - - -
26/01:30pm 14.5 WSW 10 12 1026.3 - 0.0 - Partly cloudy 10 - - - -
26/01:00pm 14.9 WSW 10 13 1026.5 - 0.0 - Partly cloudy 10 - - - -
26/12:51pm 15.1 WSW 10 13 1026.7 - 0.0 - Partly cloudy 10 - - - -
26/12:30pm 15.3 W 11 13 1026.9 - 0.0 - Partly cloudy 10 - - - -
26/12:00pm 14.7 W 11 13 1027.2 - 0.0 - Mostly clear 10 - - - -
26/11:30am 14.8 W 11 15 1027.7 - 0.0 - Partly cloudy 10 - - - -
26/11:00am 15.3 WNW 11 16 1028.0 - 0.0 - Partly cloudy 10 - - - -
26/10:30am 15.0 W 10 14 1028.3 - 0.0 - Partly cloudy 10 - - - -
26/10:14am 15.1 W 11 14 1028.3 - 0.0 - Partly cloudy 10 - - - -
26/10:00am 14.7 W 9 13 1028.3 - 0.0 - Partly cloudy 10 - - - -
26/09:32am 14.5 W 10 15 1028.3 - 0.0 - Partly cloudy 10 - - - -
26/09:30am 14.7 W 10 13 1028.2 - 0.0 - Partly cloudy 10 - - - -
26/09:00am 14.3 W 10 13 1028.2 - 0.0 - Mostly clear 10 - - - -
26/08:30am 13.3 W 9 11 1028.3 - 0.0 - Partly cloudy 10 - - - -
26/08:11am 12.8 W 9 10 1028.3 - 0.0 - Partly cloudy 10 - - - -
26/08:00am 12.6 W 8 10 1028.2 - 0.0 - Partly cloudy 10 - - - -
26/07:30am 11.7 W 7 8 1028.3 - 0.0 - Partly cloudy 10 - - - -
26/07:00am 11.8 W 8 10 1028.0 - 0.0 - - 10 - - - -
26/06:30am 12.0 W 9 10 1027.9 - 0.0 - - 10 - - - -
26/06:00am 12.2 W 9 12 1027.7 - 0.0 - - 10 - - - -
26/05:47am 12.5 W 10 14 1027.8 - 0.0 - Partly cloudy 10 - - - -
26/05:30am 12.7 W 9 11 1027.8 - 0.0 - Partly cloudy 10 - - - -
26/05:00am 12.8 W 9 12 1027.8 - 0.0 - Partly cloudy 10 - - - -
26/04:43am 12.8 W 9 12 1027.8 - 0.0 - Partly cloudy 10 - - - -
26/04:30am 12.3 W 9 11 1027.8 - 0.0 - Partly cloudy 10 - - - -
26/04:26am 12.5 W 9 12 1027.8 - 0.0 - Partly cloudy 10 - - - -
26/04:16am 12.5 W 9 13 1027.8 - 0.0 - Partly cloudy 10 - - - -
26/04:00am 11.9 W 8 11 1027.7 - 0.0 - Partly cloudy 10 - - - -
26/03:30am 12.1 W 9 11 1027.8 - 0.0 - Partly cloudy 10 - - - -
26/03:00am 12.0 W 9 12 1028.0 - 0.0 - Mostly clear 10 - - - -
26/02:30am 11.8 WSW 9 12 1028.2 - 0.0 - Partly cloudy 10 - - - -
26/02:09am 12.0 W 9 10 1028.2 - 0.0 - Partly cloudy 10 - - - -
26/02:00am 12.0 WSW 10 13 1028.2 - 0.0 - Partly cloudy 10 - - - -
26/01:47am 12.0 W 9 11 1028.3 - 0.0 - Partly cloudy 10 - - - -
26/01:30am 11.6 W 7 9 1028.2 - 0.0 - Partly cloudy 10 - - - -
26/01:00am 11.6 W 8 10 1028.1 - 0.0 - - 10 - - - -
26/12:30am 11.7 W 8 10 1028.5 - 0.0 - - 10 - - - -
26/12:00am 12.2 W 9 11 1028.7 - 0.0 - Mostly clear 10 - - - -
 
Date/Time
EST
Temp

°C
Wind Pressure Rain
since 9am
mm
Weather Cloud Vis
km
Sea
Height
m
Swell
Dir
 
Speed
knots
Gust
knots
hPa Trend Height
m
Period
s
Dir
25/11:30pm 12.4 W 9 11 1028.9 - 0.0 - Partly cloudy 10 - - - -
25/11:00pm 12.6 W 9 12 1028.9 - 0.0 - Partly cloudy 10 - - - -
25/10:30pm 12.5 W 9 11 1028.9 - 0.0 - Partly cloudy 10 - - - -
25/10:11pm 12.6 W 9 12 1029.1 - 0.0 - Partly cloudy 10 - - - -
25/10:00pm 12.7 W 9 11 1029.1 - 0.0 - Partly cloudy 10 - - - -
25/09:58pm 12.7 W 9 11 1029.1 - 0.0 - Partly cloudy 10 - - - -
25/09:30pm 12.7 W 9 11 1029.0 - 0.0 - Partly cloudy 10 - - - -
25/09:00pm 12.7 W 9 11 1028.9 - 0.0 - Partly cloudy 10 - - - -
25/08:30pm 12.9 W 12 15 1028.7 - 0.0 - Partly cloudy 10 - - - -
25/08:00pm 12.9 W 12 15 1028.8 - 0.0 - Partly cloudy 10 - - - -
25/07:45pm 12.7 W 11 14 1028.7 - 0.0 - Partly cloudy 10 - - - -
25/07:30pm 13.2 W 13 16 1028.6 - 0.0 - Partly cloudy 10 - - - -
25/07:00pm 12.8 W 12 15 1028.5 - 0.0 - - 10 - - - -
25/06:30pm 13.0 W 11 14 1028.3 - 0.0 - Partly cloudy 10 - - - -
25/06:00pm 13.2 W 14 16 1028.2 - 0.0 - Mostly cloudy 10 - - - -
25/05:30pm 13.3 W 11 14 1028.1 - 0.0 - Partly cloudy 10 - - - -
25/05:00pm 12.8 W 8 10 1028.0 - 0.0 - Partly cloudy 10 - - - -
25/04:30pm 12.9 WNW 9 10 1027.8 - 0.0 - - 10 - - - -
25/04:00pm 13.7 WNW 8 10 1027.8 - 0.0 - - 10 - - - -
25/03:30pm 14.1 W 8 10 1028.0 - 0.0 - - 10 - - - -
25/03:00pm 14.3 W 9 11 1028.0 - 0.0 - Partly cloudy 10 - - - -
25/02:30pm 13.9 WSW 8 10 1028.1 - 0.0 - Partly cloudy 10 - - - -
25/02:00pm 14.3 W 8 10 1028.0 - 0.0 - - 10 - - - -
25/01:30pm 14.5 WSW 8 10 1028.4 - 0.0 - - 10 - - - -
25/01:00pm 13.9 WSW 6 8 1028.7 - 0.0 - - 10 - - - -
25/12:30pm 13.5 SSW 7 9 1029.0 - 0.0 - Partly cloudy 10 - - - -
25/12:00pm 13.3 SSW 8 10 1029.3 - 0.0 - Mostly cloudy 10 - - - -
25/11:30am 13.7 SW 9 12 1029.7 - 0.0 - Partly cloudy 10 - - - -
25/11:00am 13.4 WSW 14 17 1030.1 - 0.0 - - 10 - - - -
25/10:42am 13.6 W 14 17 1030.3 - 0.0 - Partly cloudy 10 - - - -
25/10:30am 13.7 W 13 17 1030.2 - 0.0 - Partly cloudy 10 - - - -
25/10:27am 13.6 W 12 17 1030.2 - 0.0 - Partly cloudy 10 - - - -
25/10:00am 13.1 W 7 8 1030.2 - 0.0 - Cloudy 10 - - - -
25/09:30am 12.5 WSW 8 10 1030.1 - 0.0 - Cloudy 10 - - - -
25/09:00am 12.6 SW 8 9 1030.0 - 0.0 - Mostly cloudy 10 - - - -
25/08:30am 12.2 WSW 9 11 1029.9 - 0.0 - Cloudy 10 - - - -
25/08:00am 11.8 WSW 9 12 1030.0 - 0.0 - Cloudy 10 - - - -
25/07:30am 11.9 WSW 13 15 1029.8 - 0.0 - Cloudy 10 - - - -
25/07:00am 11.7 W 9 11 1029.6 - 0.0 - Partly cloudy 10 - - - -
25/06:30am 11.4 WSW 9 10 1029.6 - 0.0 - Partly cloudy 10 - - - -
25/06:00am 11.3 W 8 10 1029.5 - 0.0 - Cloudy 10 - - - -
25/05:50am 11.5 WSW 10 12 1029.5 - 0.0 - Partly cloudy 10 - - - -
25/05:30am 11.4 WSW 10 14 1029.5 - 0.0 - Partly cloudy 10 - - - -
25/05:11am 11.1 W 7 10 1029.4 - 0.0 - Partly cloudy 10 - - - -
25/05:00am 11.0 W 9 12 1029.4 - 0.0 - Partly cloudy 10 - - - -
25/04:33am 11.2 W 10 14 1029.2 - 0.0 - Partly cloudy 10 - - - -
25/04:30am 11.0 W 11 14 1029.2 - 0.0 - Partly cloudy 10 - - - -
25/04:00am 11.2 W 11 14 1029.3 - 0.0 - Partly cloudy 10 - - - -
25/03:37am 11.2 W 11 14 1029.4 - 0.0 - Partly cloudy 10 - - - -
25/03:35am 11.2 W 11 14 1029.4 - 0.0 - Partly cloudy 10 - - - -
25/03:30am 11.1 W 11 14 1029.5 - 0.0 - Partly cloudy 10 - - - -
25/03:17am 11.0 W 11 14 1029.4 - 0.0 - Partly cloudy 10 - - - -
25/03:05am 10.8 W 8 10 1029.5 - 0.0 - Partly cloudy 10 - - - -
25/03:00am 10.9 W 9 13 1029.5 - 0.0 - Cloudy 10 - - - -
25/02:30am 10.8 W 11 15 1029.8 - 0.0 - Partly cloudy 10 - - - -
25/02:00am 10.6 W 8 10 1029.7 - 0.0 - Partly cloudy 10 - - - -
25/01:30am 10.6 W 8 10 1029.9 - 0.0 - Partly cloudy 10 - - - -
25/01:00am 10.5 W 9 12 1029.8 - 0.0 - Partly cloudy 10 - - - -
25/12:30am 10.4 W 10 14 1030.0 - 0.0 - Partly cloudy 10 - - - -
25/12:00am 10.7 WNW 10 14 1030.2 - 0.0 - Cloudy 10 - - - -
 
Date/Time
EST
Temp

°C
Wind Pressure Rain
since 9am
mm
Weather Cloud Vis
km
Sea
Height
m
Swell
Dir
 
Speed
knots
Gust
knots
hPa Trend Height
m
Period
s
Dir
24/11:30pm 11.2 W 9 12 1030.2 - 0.0 - Partly cloudy 10 - - - -
24/11:00pm 11.3 W 11 16 1030.3 - 0.0 - Cloudy 10 - - - -
24/10:30pm 11.3 W 10 15 1030.3 - 0.0 - Cloudy 10 - - - -
24/10:00pm 11.3 W 10 13 1030.4 - 0.0 - Cloudy 10 - - - -
24/09:30pm 11.1 WNW 9 11 1030.3 - 0.0 - Partly cloudy 10 - - - -
24/09:00pm 11.2 W 7 8 1030.3 - 0.0 - Cloudy 10 - - - -
24/08:30pm 11.2 WNW 9 13 1030.2 - 0.0 - Cloudy 10 - - - -
24/08:00pm 11.0 W 8 10 1030.2 - 0.0 - Cloudy 10 - - - -
24/07:30pm 10.9 WNW 7 10 1030.2 - 0.0 - Cloudy 10 - - - -
24/07:00pm 10.9 WNW 6 8 1030.4 - 0.0 - Partly cloudy 10 - - - -
24/06:30pm 11.2 W 9 11 1030.1 - 0.0 - Cloudy 10 - - - -
24/06:00pm 11.0 W 7 10 1030.0 - 0.0 - Mostly cloudy 10 - - - -
24/05:30pm 10.5 W 7 9 1029.8 - 0.0 - Partly cloudy 10 - - - -
24/05:00pm 10.9 WNW 7 9 1029.6 - 0.0 - Cloudy 10 - - - -
24/04:30pm 11.2 W 8 10 1029.6 - 0.0 - Partly cloudy 10 - - - -
24/04:00pm 11.6 W 8 10 1029.7 - 0.0 - Cloudy 10 - - - -
24/03:38pm 11.7 W 9 12 1029.7 - 0.0 - Partly cloudy 10 - - - -
24/03:30pm 11.8 W 9 14 1029.7 - 0.0 - Partly cloudy 10 - - - -
24/03:12pm 12.1 WNW 9 10 1029.7 - 0.0 - Partly cloudy 10 - - - -
24/03:00pm 12.2 W 10 12 1029.6 - 0.0 - Partly cloudy 10 - - - -
24/02:53pm 12.5 W 9 11 1029.6 - 0.0 - Partly cloudy 10 - - - -
24/02:50pm 12.6 W 9 13 1029.6 - 0.0 - Partly cloudy 10 - - - -
24/02:30pm 13.0 W 10 12 1029.6 - 0.0 - Partly cloudy 10 - - - -
24/02:00pm 13.6 W 9 11 1029.6 - 0.0 - Partly cloudy 10 - - - -
24/01:30pm 13.2 W 11 15 1029.7 - 0.0 - Partly cloudy 10 - - - -
24/01:00pm 13.3 W 10 13 1029.9 - 0.0 - Partly cloudy 10 - - - -
24/12:30pm 12.9 W 12 15 1030.1 - 0.0 - Cloudy 10 - - - -
24/12:00pm 12.8 W 10 14 1030.3 - 0.0 - Partly cloudy 10 - - - -
24/11:30am 13.3 WNW 9 14 1030.5 - 0.0 - Partly cloudy 10 - - - -
24/11:00am 13.2 WNW 10 13 1030.7 - 0.0 - Partly cloudy 10 - - - -
24/10:30am 12.5 WNW 9 13 1030.7 - 0.0 - Cloudy 10 - - - -
24/10:00am 12.4 WNW 6 9 1030.6 - 0.0 - Cloudy 10 - - - -
24/09:30am 11.7 W 6 8 1030.4 - 0.0 - Cloudy 10 - - - -
24/09:00am 9.4 NE 4 4 1030.4 - 0.2 - Mostly cloudy 10 - - - -
24/08:30am 8.1 NNE 3 4 1030.2 - 0.2 - Cloudy 10 - - - -
24/08:00am 6.6 NE 5 6 1030.1 - 0.2 - Cloudy 10 - - - -
24/07:30am 5.4 NE 5 6 1029.9 - 0.2 - Cloudy 10 - - - -
24/07:00am 5.1 NE 5 5 1029.8 - 0.0 - Partly cloudy 10 - - - -
24/06:30am 6.1 NE 4 5 1029.6 - 0.0 - Cloudy 10 - - - -
24/06:00am 5.4 NE 5 6 1029.5 - 0.0 - Mostly cloudy 10 - - - -
24/05:30am 5.7 NE 5 6 1029.3 - 0.0 - Partly cloudy 10 - - - -
24/05:00am 5.9 NE 5 6 1029.1 - 0.0 - Cloudy - - - - -
24/04:30am 4.6 ENE 6 6 1029.1 - 0.0 - Partly cloudy 10 - - - -
24/04:00am 4.4 ENE 6 8 1028.8 - 0.0 - Cloudy - - - - -
24/03:30am 4.2 NE 7 8 1028.6 - 0.0 - Partly cloudy - - - - -
24/03:00am 3.8 NE 7 8 1028.8 - 0.0 - Mostly cloudy - - - - -
24/02:45am 3.2 NE 8 9 1028.8 - 0.0 - Partly cloudy - - - - -
24/02:30am 2.7 ENE 7 8 1028.9 - 0.0 - Partly cloudy - - - - -
24/02:00am 1.8 ENE 6 7 1029.0 - 0.0 - - 10 - - - -
24/01:30am 1.9 ENE 7 8 1028.9 - 0.0 - - 10 - - - -
24/01:00am 2.2 ENE 8 9 1029.0 - 0.0 - - 10 - - - -
24/12:30am 2.4 ENE 7 8 1029.2 - 0.0 - - 10 - - - -

Other Formats:

Comma delimited format used in spreadsheet applications
http://www.bom.gov.au/fwo/IDT60701/IDT60701.94980.axf

JavaScript Object Notation format (JSON) in row-major order
http://www.bom.gov.au/fwo/IDT60701/IDT60701.94980.json